createdAt,value
2018-05-16T00:00:36.841Z,7.50
2018-05-16T00:01:38.658Z,7.80
2018-05-16T00:02:36.750Z,8.40
2018-05-16T00:03:36.804Z,8.10
2018-05-16T00:04:36.802Z,8.80
2018-05-16T00:05:36.799Z,7.80
2018-05-16T00:06:36.808Z,9.80
2018-05-16T00:07:36.772Z,9.10
2018-05-16T00:08:38.602Z,8.00
2018-05-16T00:09:36.818Z,7.80
2018-05-16T00:10:36.797Z,8.00
2018-05-16T00:11:36.808Z,7.40
2018-05-16T00:12:36.833Z,8.00
2018-05-16T00:14:36.817Z,7.70
2018-05-16T00:15:36.795Z,8.60
2018-05-16T00:16:36.825Z,8.30
2018-05-16T00:17:36.837Z,7.30
2018-05-16T00:18:36.800Z,9.30
2018-05-16T00:19:36.812Z,8.90
2018-05-16T00:20:36.833Z,7.70
2018-05-16T00:21:36.834Z,7.30
2018-05-16T00:22:37.079Z,8.60
2018-05-16T00:23:36.812Z,7.80
2018-05-16T00:24:38.611Z,7.40
2018-05-16T00:25:36.852Z,7.30
2018-05-16T00:26:36.854Z,7.30
2018-05-16T00:27:36.845Z,7.60
2018-05-16T00:28:36.817Z,7.50
2018-05-16T00:29:36.887Z,7.20
2018-05-16T00:30:36.798Z,7.50
2018-05-16T00:31:36.794Z,7.90
2018-05-16T00:32:36.788Z,7.30
2018-05-16T00:33:36.808Z,7.40
2018-05-16T00:34:36.759Z,7.30
2018-05-16T00:35:36.810Z,7.40
2018-05-16T00:36:36.778Z,7.50
2018-05-16T00:37:36.800Z,7.30
2018-05-16T00:38:43.158Z,7.20
2018-05-16T00:39:36.802Z,7.60
2018-05-16T00:40:36.811Z,7.80
2018-05-16T00:41:36.803Z,7.60
2018-05-16T00:42:36.819Z,7.70
2018-05-16T00:43:36.819Z,7.90
2018-05-16T00:44:36.848Z,8.00
2018-05-16T00:46:36.867Z,8.10
2018-05-16T00:47:36.843Z,8.00
2018-05-16T00:48:36.874Z,9.10
2018-05-16T00:49:36.442Z,7.50
2018-05-16T00:50:36.822Z,7.70
2018-05-16T00:51:36.819Z,7.80
2018-05-16T00:52:36.843Z,9.10
2018-05-16T00:53:36.870Z,6.90
2018-05-16T00:54:36.818Z,7.80
2018-05-16T00:55:36.452Z,7.70
2018-05-16T00:56:36.825Z,9.30
2018-05-16T00:57:36.878Z,7.60
2018-05-16T00:58:36.811Z,8.80
2018-05-16T00:59:36.821Z,6.90
2018-05-16T01:00:36.814Z,7.30
2018-05-16T01:01:36.825Z,7.20
2018-05-16T01:02:36.822Z,7.60
2018-05-16T01:03:36.805Z,6.70
2018-05-16T01:04:36.845Z,7.30
2018-05-16T01:05:36.837Z,7.40
2018-05-16T01:06:36.815Z,7.20
2018-05-16T01:07:36.818Z,6.90
2018-05-16T01:08:42.849Z,7.00
2018-05-16T01:09:36.836Z,7.00
2018-05-16T01:10:36.831Z,7.50
2018-05-16T01:11:36.870Z,7.40
2018-05-16T01:12:36.859Z,6.60
2018-05-16T01:13:36.875Z,6.60
2018-05-16T01:14:36.878Z,7.00
2018-05-16T01:15:36.828Z,6.60
2018-05-16T01:16:36.835Z,7.50
2018-05-16T01:17:36.872Z,7.40
2018-05-16T01:18:36.853Z,6.80
2018-05-16T01:19:36.840Z,7.70
2018-05-16T01:20:37.097Z,9.40
2018-05-16T01:21:36.826Z,9.00
2018-05-16T01:22:36.873Z,10.70
2018-05-16T01:23:36.849Z,9.70
2018-05-16T01:25:37.100Z,8.00
2018-05-16T01:26:36.827Z,8.70
2018-05-16T01:27:36.807Z,8.30
2018-05-16T01:28:36.798Z,8.50
2018-05-16T01:29:36.815Z,8.30
2018-05-16T01:30:36.817Z,7.40
2018-05-16T01:31:36.796Z,7.50
2018-05-16T01:32:36.806Z,7.50
2018-05-16T01:33:36.822Z,7.30
2018-05-16T01:34:36.825Z,6.90
2018-05-16T01:35:36.816Z,7.30
2018-05-16T01:36:36.827Z,7.60
2018-05-16T01:37:36.840Z,7.30
2018-05-16T01:38:36.812Z,8.10
2018-05-16T01:39:36.853Z,7.10
2018-05-16T01:40:37.110Z,7.00
2018-05-16T01:41:36.880Z,6.60
2018-05-16T01:42:36.854Z,7.20
2018-05-16T01:43:36.890Z,6.50
2018-05-16T01:44:37.116Z,6.90
2018-05-16T01:45:36.849Z,6.90
2018-05-16T01:46:36.836Z,7.50
2018-05-16T01:47:36.890Z,6.80
2018-05-16T01:48:36.872Z,6.70
2018-05-16T01:49:36.928Z,7.70
2018-05-16T01:50:36.886Z,7.70
2018-05-16T01:51:36.887Z,7.30
2018-05-16T01:52:36.869Z,7.20
2018-05-16T01:53:36.856Z,7.50
2018-05-16T01:54:36.833Z,7.00
2018-05-16T01:55:36.810Z,7.10
2018-05-16T01:56:36.812Z,7.30
2018-05-16T01:57:37.075Z,7.80
2018-05-16T01:58:36.818Z,7.20
2018-05-16T01:59:36.805Z,7.30
2018-05-16T02:00:36.835Z,7.70
2018-05-16T02:01:36.874Z,9.00
2018-05-16T02:02:36.852Z,7.70
2018-05-16T02:03:37.106Z,7.50
2018-05-16T02:04:36.867Z,7.70
2018-05-16T02:05:36.886Z,8.40
2018-05-16T02:06:36.887Z,7.40
2018-05-16T02:07:37.105Z,7.70
2018-05-16T02:08:37.102Z,7.50
2018-05-16T02:09:37.088Z,7.60
2018-05-16T02:10:37.085Z,8.10
2018-05-16T02:11:36.896Z,7.30
2018-05-16T02:12:36.920Z,8.00
2018-05-16T02:13:36.911Z,7.60
2018-05-16T02:14:36.987Z,8.00
2018-05-16T02:15:37.088Z,8.00
2018-05-16T02:16:36.969Z,7.70
2018-05-16T02:17:36.952Z,7.60
2018-05-16T02:18:37.090Z,7.90
2018-05-16T02:19:36.937Z,7.90
2018-05-16T02:20:36.962Z,8.00
2018-05-16T02:21:36.965Z,7.70
2018-05-16T02:22:36.848Z,8.00
2018-05-16T02:23:36.925Z,7.90
2018-05-16T02:24:36.826Z,8.00
2018-05-16T02:25:36.889Z,7.90
2018-05-16T02:26:36.868Z,7.80
2018-05-16T02:27:36.825Z,9.30
2018-05-16T02:28:39.099Z,7.40
2018-05-16T02:29:36.835Z,7.60
2018-05-16T02:30:36.874Z,7.70
2018-05-16T02:31:36.889Z,8.30
2018-05-16T02:32:36.832Z,8.20
2018-05-16T02:33:36.871Z,7.90
2018-05-16T02:34:37.116Z,7.30
2018-05-16T02:35:36.899Z,7.50
2018-05-16T02:36:36.892Z,8.00
2018-05-16T02:37:36.915Z,7.80
2018-05-16T02:38:37.094Z,7.90
2018-05-16T02:39:37.098Z,8.20
2018-05-16T02:40:36.977Z,7.70
2018-05-16T02:41:36.921Z,7.30
2018-05-16T02:42:36.933Z,7.90
2018-05-16T02:43:36.895Z,7.20
2018-05-16T02:44:36.940Z,8.10
2018-05-16T02:45:36.980Z,8.30
2018-05-16T02:46:36.972Z,7.20
2018-05-16T02:47:37.284Z,7.10
2018-05-16T02:48:37.067Z,8.20
2018-05-16T02:49:37.181Z,7.60
2018-05-16T02:50:37.128Z,8.20
2018-05-16T02:51:36.839Z,7.60
2018-05-16T02:52:36.900Z,8.10
2018-05-16T02:53:36.930Z,7.00
2018-05-16T02:54:36.948Z,7.40
2018-05-16T02:55:36.943Z,8.10
2018-05-16T02:56:36.959Z,7.70
2018-05-16T02:57:36.995Z,7.40
2018-05-16T02:58:36.969Z,7.70
2018-05-16T02:59:36.979Z,7.90
2018-05-16T03:00:38.754Z,8.00
2018-05-16T03:01:36.974Z,8.00
2018-05-16T03:02:36.980Z,8.40
2018-05-16T03:03:38.753Z,8.10
2018-05-16T03:04:36.978Z,7.50
2018-05-16T03:05:36.974Z,8.20
2018-05-16T03:06:36.680Z,8.40
2018-05-16T03:07:37.012Z,8.10
2018-05-16T03:08:37.028Z,8.20
2018-05-16T03:09:37.034Z,8.50
2018-05-16T03:10:36.976Z,8.60
2018-05-16T03:11:37.006Z,9.70
2018-05-16T03:12:37.036Z,11.00
2018-05-16T03:13:42.284Z,10.00
2018-05-16T03:14:37.000Z,11.00
2018-05-16T03:15:37.044Z,10.20
2018-05-16T03:16:37.032Z,10.70
2018-05-16T03:17:37.060Z,11.00
2018-05-16T03:18:37.195Z,11.50
2018-05-16T03:19:36.906Z,10.40
2018-05-16T03:20:36.881Z,10.40
2018-05-16T03:21:36.899Z,10.40
2018-05-16T03:22:36.971Z,10.10
2018-05-16T03:23:36.918Z,10.40
2018-05-16T03:24:36.972Z,10.90
2018-05-16T03:25:36.906Z,11.30
2018-05-16T03:26:36.961Z,11.10
2018-05-16T03:27:36.953Z,10.80
2018-05-16T03:28:36.979Z,11.10
2018-05-16T03:29:36.972Z,10.40
2018-05-16T03:30:36.940Z,11.40
2018-05-16T03:31:36.977Z,11.00
2018-05-16T03:32:36.973Z,11.20
2018-05-16T03:33:37.050Z,11.40
2018-05-16T03:34:36.983Z,11.70
2018-05-16T03:35:36.999Z,12.90
2018-05-16T03:36:36.965Z,12.70
2018-05-16T03:37:37.109Z,14.50
2018-05-16T03:38:37.011Z,13.90
2018-05-16T03:39:36.997Z,13.50
2018-05-16T03:40:37.059Z,14.10
2018-05-16T03:41:37.012Z,13.10
2018-05-16T03:42:37.085Z,12.20
2018-05-16T03:43:36.982Z,11.70
2018-05-16T03:44:37.127Z,12.60
2018-05-16T03:45:37.027Z,12.40
2018-05-16T03:46:37.069Z,13.10
2018-05-16T03:47:37.235Z,12.30
2018-05-16T03:48:36.904Z,13.50
2018-05-16T03:49:36.915Z,13.50
2018-05-16T03:50:36.912Z,12.30
2018-05-16T03:51:36.983Z,12.40
2018-05-16T03:52:36.963Z,13.10
2018-05-16T03:53:36.907Z,11.90
2018-05-16T03:54:36.913Z,11.40
2018-05-16T03:55:36.913Z,11.70
2018-05-16T03:56:36.974Z,11.50
2018-05-16T03:57:36.974Z,11.60
2018-05-16T03:58:36.944Z,11.90
2018-05-16T03:59:37.064Z,12.20
2018-05-16T04:00:37.138Z,11.90
2018-05-16T04:01:37.069Z,11.50
2018-05-16T04:02:37.055Z,11.30
2018-05-16T04:03:37.000Z,11.80
2018-05-16T04:04:37.019Z,10.90
2018-05-16T04:05:37.058Z,11.30
2018-05-16T04:06:37.122Z,12.20
2018-05-16T04:07:37.065Z,11.70
2018-05-16T04:08:36.905Z,11.20
2018-05-16T04:09:38.794Z,11.10
2018-05-16T04:10:37.055Z,11.60
2018-05-16T04:11:36.997Z,11.30
2018-05-16T04:12:36.966Z,10.90
2018-05-16T04:13:37.108Z,11.60
2018-05-16T04:14:36.331Z,10.60
2018-05-16T04:15:37.046Z,10.40
2018-05-16T04:16:37.062Z,10.10
2018-05-16T04:17:37.045Z,10.50
2018-05-16T04:18:36.971Z,10.70
2018-05-16T04:19:37.058Z,10.40
2018-05-16T04:20:37.057Z,9.60
2018-05-16T04:21:37.068Z,9.50
2018-05-16T04:22:37.078Z,9.60
2018-05-16T04:23:36.994Z,10.10
2018-05-16T04:24:37.522Z,9.40
2018-05-16T04:25:37.175Z,10.50
2018-05-16T04:26:37.122Z,10.00
2018-05-16T04:27:37.096Z,9.60
2018-05-16T04:28:37.358Z,9.80
2018-05-16T04:29:37.488Z,9.90
2018-05-16T04:30:36.760Z,10.20
2018-05-16T04:31:37.148Z,10.30
2018-05-16T04:32:39.001Z,10.30
2018-05-16T04:33:37.169Z,11.00
2018-05-16T04:34:37.151Z,11.10
2018-05-16T04:35:39.036Z,10.20
2018-05-16T04:36:38.953Z,10.20
2018-05-16T04:37:38.966Z,9.90
2018-05-16T04:38:37.131Z,10.80
2018-05-16T04:39:37.064Z,10.30
2018-05-16T04:40:37.667Z,10.00
2018-05-16T04:41:36.966Z,10.90
2018-05-16T04:42:36.971Z,10.60
2018-05-16T04:43:37.007Z,10.40
2018-05-16T04:44:37.006Z,11.60
2018-05-16T04:45:38.228Z,11.80
2018-05-16T04:46:37.150Z,11.00
2018-05-16T04:47:37.135Z,10.80
2018-05-16T04:48:37.567Z,10.20
2018-05-16T04:49:37.116Z,10.80
2018-05-16T04:50:37.473Z,11.30
2018-05-16T04:51:37.134Z,11.00
2018-05-16T04:52:37.150Z,11.10
2018-05-16T04:53:37.112Z,10.90
2018-05-16T04:54:37.154Z,10.90
2018-05-16T04:55:37.419Z,11.20
2018-05-16T04:56:37.136Z,10.40
2018-05-16T04:57:37.459Z,10.50
2018-05-16T04:58:37.440Z,10.60
2018-05-16T04:59:37.449Z,10.90
2018-05-16T05:00:37.429Z,10.80
2018-05-16T05:02:01.983Z,11.10
2018-05-16T05:02:37.667Z,10.70
2018-05-16T05:03:37.644Z,11.70
2018-05-16T05:04:37.433Z,10.20
2018-05-16T05:05:37.688Z,9.90
2018-05-16T05:06:37.455Z,10.60
2018-05-16T05:07:37.690Z,10.90
2018-05-16T05:08:37.312Z,11.20
2018-05-16T05:09:37.379Z,10.20
2018-05-16T05:10:37.369Z,10.20
2018-05-16T05:11:36.716Z,10.50
2018-05-16T05:12:36.733Z,10.10
2018-05-16T05:13:36.740Z,11.40
2018-05-16T05:14:36.737Z,9.80
2018-05-16T05:15:36.691Z,11.20
2018-05-16T05:16:37.373Z,10.10
2018-05-16T05:17:37.435Z,9.80
2018-05-16T05:18:36.868Z,9.20
2018-05-16T05:19:36.791Z,9.70
2018-05-16T05:20:35.833Z,9.60
2018-05-16T05:21:37.192Z,9.10
2018-05-16T05:22:36.988Z,9.50
2018-05-16T05:23:37.683Z,9.90
2018-05-16T05:24:37.202Z,9.60
2018-05-16T05:25:36.423Z,9.80
2018-05-16T05:26:36.668Z,9.90
2018-05-16T05:27:36.664Z,9.60
2018-05-16T05:28:36.447Z,10.20
2018-05-16T05:29:36.813Z,10.30
2018-05-16T05:30:36.823Z,9.30
2018-05-16T05:31:36.442Z,10.10
2018-05-16T05:32:36.846Z,10.10
2018-05-16T05:33:36.859Z,9.30
2018-05-16T05:34:36.881Z,9.40
2018-05-16T05:35:36.839Z,9.70
2018-05-16T05:36:36.992Z,9.90
2018-05-16T05:37:36.888Z,9.80
2018-05-16T05:38:36.885Z,9.10
2018-05-16T05:39:38.677Z,9.80
2018-05-16T05:40:36.770Z,9.70
2018-05-16T05:41:37.381Z,9.00
2018-05-16T05:42:36.831Z,9.80
2018-05-16T05:43:37.383Z,9.70
2018-05-16T05:44:37.694Z,9.40
2018-05-16T05:45:37.440Z,9.90
2018-05-16T05:46:37.701Z,9.00
2018-05-16T05:47:37.657Z,9.60
2018-05-16T05:48:37.700Z,9.50
2018-05-16T05:49:37.454Z,10.40
2018-05-16T05:50:37.390Z,10.40
2018-05-16T05:51:37.434Z,10.30
2018-05-16T05:52:37.452Z,10.20
2018-05-16T05:53:37.445Z,10.30
2018-05-16T05:54:37.448Z,12.40
2018-05-16T05:55:37.702Z,9.90
2018-05-16T05:56:37.708Z,10.50
2018-05-16T05:57:37.392Z,12.80
2018-05-16T05:58:37.433Z,11.00
2018-05-16T05:59:37.395Z,11.60
2018-05-16T06:00:37.205Z,11.50
2018-05-16T06:01:37.422Z,11.60
2018-05-16T06:02:37.705Z,11.80
2018-05-16T06:03:37.709Z,10.90
2018-05-16T06:04:37.418Z,11.80
2018-05-16T06:05:37.705Z,11.30
2018-05-16T06:06:37.482Z,11.10
2018-05-16T06:07:37.457Z,11.60
2018-05-16T06:08:37.711Z,12.50
2018-05-16T06:09:37.705Z,11.70
2018-05-16T06:10:37.705Z,10.80
2018-05-16T06:11:40.058Z,11.20
2018-05-16T06:12:39.506Z,11.00
2018-05-16T06:13:37.709Z,12.00
2018-05-16T06:14:37.709Z,11.90
2018-05-16T06:15:37.704Z,12.10
2018-05-16T06:16:37.488Z,12.10
2018-05-16T06:17:37.751Z,11.50
2018-05-16T06:18:37.705Z,11.90
2018-05-16T06:19:37.528Z,12.40
2018-05-16T06:20:37.478Z,11.70
2018-05-16T06:21:37.716Z,11.70
2018-05-16T06:22:38.225Z,12.40
2018-05-16T06:23:37.494Z,11.90
2018-05-16T06:24:37.212Z,11.40
2018-05-16T06:25:37.719Z,12.10
2018-05-16T06:26:37.705Z,12.20
2018-05-16T06:27:39.192Z,13.30
2018-05-16T06:28:40.010Z,12.20
2018-05-16T06:29:36.904Z,11.40
2018-05-16T06:30:37.711Z,11.70
2018-05-16T06:31:37.208Z,11.90
2018-05-16T06:32:37.604Z,13.20
2018-05-16T06:33:37.715Z,11.90
2018-05-16T06:34:37.856Z,12.00
2018-05-16T06:35:37.517Z,12.30
2018-05-16T06:36:38.019Z,13.30
2018-05-16T06:37:37.764Z,13.70
2018-05-16T06:38:37.758Z,12.20
2018-05-16T06:39:44.152Z,13.80
2018-05-16T06:40:43.440Z,13.90
2018-05-16T06:41:37.420Z,13.90
2018-05-16T06:42:37.395Z,14.10
2018-05-16T06:43:37.472Z,13.80
2018-05-16T06:44:37.435Z,13.30
2018-05-16T06:45:36.991Z,14.40
2018-05-16T06:46:37.703Z,13.70
2018-05-16T06:47:37.424Z,13.70
2018-05-16T06:48:37.724Z,14.40
2018-05-16T06:49:37.472Z,13.90
2018-05-16T06:50:37.479Z,14.10
2018-05-16T06:51:37.454Z,14.30
2018-05-16T06:52:37.725Z,14.20
2018-05-16T06:53:38.172Z,14.30
2018-05-16T06:54:51.866Z,14.60
2018-05-16T06:55:37.114Z,15.00
2018-05-16T06:56:38.077Z,15.50
2018-05-16T06:57:39.096Z,14.30
2018-05-16T06:58:38.020Z,15.00
2018-05-16T06:59:37.527Z,14.70
2018-05-16T07:00:37.537Z,14.20
2018-05-16T07:01:37.769Z,14.90
2018-05-16T07:02:37.556Z,14.00
2018-05-16T07:03:37.903Z,14.30
2018-05-16T07:04:38.012Z,14.10
2018-05-16T07:05:37.081Z,14.30
2018-05-16T07:06:37.525Z,14.30
2018-05-16T07:07:37.460Z,15.40
2018-05-16T07:08:37.775Z,15.80
2018-05-16T07:09:37.523Z,15.30
2018-05-16T07:10:37.524Z,15.30
2018-05-16T07:11:37.523Z,14.50
2018-05-16T07:12:38.192Z,14.00
2018-05-16T07:13:37.743Z,14.70
2018-05-16T07:14:37.499Z,15.40
2018-05-16T07:15:37.544Z,16.50
2018-05-16T07:16:37.739Z,15.00
2018-05-16T07:17:37.537Z,15.90
2018-05-16T07:18:37.547Z,15.70
2018-05-16T07:19:37.551Z,15.90
2018-05-16T07:20:37.739Z,16.00
2018-05-16T07:21:38.016Z,17.40
2018-05-16T07:22:37.494Z,16.80
2018-05-16T07:23:37.483Z,17.20
2018-05-16T07:24:39.273Z,17.10
2018-05-16T07:25:37.496Z,17.50
2018-05-16T07:26:37.740Z,17.60
2018-05-16T07:27:37.466Z,17.20
2018-05-16T07:28:37.485Z,17.90
2018-05-16T07:29:37.578Z,18.00
2018-05-16T07:30:37.743Z,17.50
2018-05-16T07:31:37.730Z,17.60
2018-05-16T07:32:37.483Z,17.20
2018-05-16T07:33:37.779Z,17.80
2018-05-16T07:34:37.542Z,17.70
2018-05-16T07:35:37.020Z,17.30
2018-05-16T07:36:37.054Z,18.20
2018-05-16T07:37:39.368Z,17.10
2018-05-16T07:38:37.564Z,17.70
2018-05-16T07:39:37.756Z,16.70
2018-05-16T07:40:38.129Z,17.30
2018-05-16T07:41:38.067Z,17.50
2018-05-16T07:42:37.593Z,17.30
2018-05-16T07:43:37.571Z,18.40
2018-05-16T07:44:38.022Z,17.30
2018-05-16T07:45:37.446Z,17.30
2018-05-16T07:46:38.044Z,18.30
2018-05-16T07:47:37.544Z,17.90
2018-05-16T07:48:38.027Z,17.50
2018-05-16T07:49:37.463Z,18.00
2018-05-16T07:50:37.747Z,18.40
2018-05-16T07:51:37.746Z,18.00
2018-05-16T07:52:38.322Z,18.30
2018-05-16T07:53:38.051Z,17.50
2018-05-16T07:54:37.749Z,18.10
2018-05-16T07:55:37.486Z,17.90
2018-05-16T07:56:38.048Z,18.20
2018-05-16T07:57:39.896Z,17.60
2018-05-16T07:58:37.718Z,18.10
2018-05-16T07:59:37.472Z,19.00
2018-05-16T08:00:37.506Z,18.90
2018-05-16T08:01:37.528Z,18.90
2018-05-16T08:02:37.541Z,20.10
2018-05-16T08:03:37.801Z,19.90
2018-05-16T08:04:37.789Z,20.10
2018-05-16T08:05:37.753Z,21.40
2018-05-16T08:06:37.477Z,19.80
2018-05-16T08:07:37.533Z,20.90
2018-05-16T08:08:37.620Z,20.00
2018-05-16T08:09:37.763Z,19.90
2018-05-16T08:10:37.780Z,20.40
2018-05-16T08:11:37.730Z,21.80
2018-05-16T08:12:37.795Z,21.20
2018-05-16T08:13:37.613Z,23.40
2018-05-16T08:14:37.771Z,21.40
2018-05-16T08:15:37.527Z,21.60
2018-05-16T08:16:38.386Z,21.30
2018-05-16T08:17:38.225Z,22.10
2018-05-16T08:18:38.154Z,22.10
2018-05-16T08:19:37.561Z,21.60
2018-05-16T08:20:37.753Z,20.90
2018-05-16T08:21:37.888Z,20.30
2018-05-16T08:22:37.757Z,21.10
2018-05-16T08:23:37.800Z,21.20
2018-05-16T08:24:37.789Z,21.10
2018-05-16T08:25:37.807Z,21.10
2018-05-16T08:26:37.487Z,20.50
2018-05-16T08:27:37.720Z,21.30
2018-05-16T08:28:38.061Z,21.60
2018-05-16T08:29:37.521Z,21.00
2018-05-16T08:30:37.769Z,21.10
2018-05-16T08:31:37.527Z,21.30
2018-05-16T08:32:40.039Z,22.10
2018-05-16T08:33:38.047Z,21.30
2018-05-16T08:34:37.988Z,22.00
2018-05-16T08:35:37.591Z,21.70
2018-05-16T08:36:37.591Z,21.70
2018-05-16T08:37:37.721Z,22.40
2018-05-16T08:38:37.813Z,21.90
2018-05-16T08:39:38.213Z,21.20
2018-05-16T08:40:37.765Z,20.80
2018-05-16T08:41:37.775Z,21.10
2018-05-16T08:42:38.954Z,22.00
2018-05-16T08:43:38.079Z,21.50
2018-05-16T08:44:38.416Z,22.60
2018-05-16T08:45:37.771Z,21.00
2018-05-16T08:46:37.732Z,21.40
2018-05-16T08:47:37.762Z,22.00
2018-05-16T08:48:37.748Z,21.30
2018-05-16T08:49:37.781Z,22.10
2018-05-16T08:50:38.179Z,21.80
2018-05-16T08:51:37.650Z,21.50
2018-05-16T08:52:40.157Z,21.00
2018-05-16T08:53:38.330Z,19.70
2018-05-16T08:54:37.463Z,20.00
2018-05-16T08:55:37.828Z,20.10
2018-05-16T08:56:37.541Z,20.80
2018-05-16T08:57:37.588Z,22.70
2018-05-16T08:58:38.294Z,20.30
2018-05-16T08:59:37.793Z,18.50
2018-05-16T09:00:37.779Z,20.60
2018-05-16T09:01:38.234Z,19.00
2018-05-16T09:02:37.591Z,18.70
2018-05-16T09:03:37.636Z,19.00
2018-05-16T09:04:37.751Z,18.40
2018-05-16T09:05:37.315Z,19.50
2018-05-16T09:06:37.572Z,18.00
2018-05-16T09:07:38.504Z,18.10
2018-05-16T09:08:38.120Z,17.90
2018-05-16T09:09:38.058Z,17.80
2018-05-16T09:10:37.778Z,17.60
2018-05-16T09:12:38.122Z,16.60
2018-05-16T09:13:37.983Z,16.30
2018-05-16T09:14:37.964Z,16.70
2018-05-16T09:15:37.814Z,15.10
2018-05-16T09:16:38.056Z,14.10
2018-05-16T09:17:37.270Z,14.90
2018-05-16T09:18:37.666Z,15.30
2018-05-16T09:19:37.906Z,15.20
2018-05-16T09:20:37.819Z,14.90
2018-05-16T09:21:37.792Z,15.60
2018-05-16T09:22:38.123Z,14.40
2018-05-16T09:23:37.737Z,15.30
2018-05-16T09:24:38.288Z,15.50
2018-05-16T09:25:38.240Z,16.00
2018-05-16T09:26:37.825Z,14.50
2018-05-16T09:27:37.361Z,14.90
2018-05-16T09:28:37.768Z,14.80
2018-05-16T09:29:37.768Z,14.80
2018-05-16T09:30:38.249Z,14.80
2018-05-16T09:31:37.749Z,15.40
2018-05-16T09:32:38.111Z,15.80
2018-05-16T09:33:37.971Z,14.30
2018-05-16T09:34:38.357Z,14.30
2018-05-16T09:35:38.212Z,14.90
2018-05-16T09:36:38.321Z,15.10
2018-05-16T09:37:38.282Z,15.60
2018-05-16T09:38:38.349Z,14.70
2018-05-16T09:39:38.663Z,14.10
2018-05-16T09:40:37.790Z,14.70
2018-05-16T09:41:38.290Z,15.30
2018-05-16T09:42:38.229Z,15.70
2018-05-16T09:43:38.290Z,14.80
2018-05-16T09:44:38.314Z,15.20
2018-05-16T09:45:37.377Z,14.90
2018-05-16T09:46:37.427Z,15.40
2018-05-16T09:47:37.429Z,15.00
2018-05-16T09:48:38.088Z,15.60
2018-05-16T09:49:38.333Z,15.30
2018-05-16T09:50:40.110Z,14.90
2018-05-16T09:51:38.593Z,15.60
2018-05-16T09:52:37.840Z,15.00
2018-05-16T09:53:39.050Z,15.60
2018-05-16T09:54:37.789Z,15.10
2018-05-16T09:55:38.095Z,15.20
2018-05-16T09:56:38.083Z,15.50
2018-05-16T09:57:38.120Z,16.00
2018-05-16T09:58:38.106Z,16.00
2018-05-16T09:59:38.764Z,15.20
2018-05-16T10:00:38.352Z,15.90
2018-05-16T10:01:38.245Z,15.20
2018-05-16T10:02:38.142Z,16.20
2018-05-16T10:03:38.800Z,14.80
2018-05-16T10:04:38.355Z,15.00
2018-05-16T10:06:38.038Z,15.50
2018-05-16T10:07:38.057Z,15.80
2018-05-16T10:08:38.260Z,14.90
2018-05-16T10:09:38.380Z,14.80
2018-05-16T10:10:38.673Z,15.20
2018-05-16T10:11:38.258Z,15.20
2018-05-16T10:12:38.655Z,15.50
2018-05-16T10:13:38.692Z,15.90
2018-05-16T10:14:38.329Z,15.30
2018-05-16T10:15:38.117Z,15.70
2018-05-16T10:16:38.050Z,15.80
2018-05-16T10:17:38.168Z,14.50
2018-05-16T10:18:38.095Z,13.90
2018-05-16T10:19:38.183Z,13.70
2018-05-16T10:20:38.303Z,12.30
2018-05-16T10:21:39.816Z,12.70
2018-05-16T10:22:38.357Z,13.70
2018-05-16T10:23:38.383Z,13.20
2018-05-16T10:24:38.466Z,12.20
2018-05-16T10:25:37.849Z,12.70
2018-05-16T10:26:38.309Z,14.10
2018-05-16T10:27:38.129Z,12.60
2018-05-16T10:28:38.366Z,12.50
2018-05-16T10:29:38.090Z,13.50
2018-05-16T10:30:38.106Z,13.50
2018-05-16T10:31:38.355Z,13.20
2018-05-16T10:32:38.075Z,12.50
2018-05-16T10:33:38.334Z,13.50
2018-05-16T10:34:38.419Z,13.10
2018-05-16T10:35:38.649Z,12.60
2018-05-16T10:36:37.746Z,12.00
2018-05-16T10:37:37.848Z,11.20
2018-05-16T10:38:38.043Z,12.30
2018-05-16T10:39:37.803Z,12.10
2018-05-16T10:40:38.275Z,14.00
2018-05-16T10:41:38.307Z,12.50
2018-05-16T10:42:38.093Z,12.30
2018-05-16T10:43:38.371Z,11.70
2018-05-16T10:44:38.600Z,11.50
2018-05-16T10:45:37.514Z,11.50
2018-05-16T10:46:38.055Z,12.10
2018-05-16T10:47:38.313Z,12.70
2018-05-16T10:48:38.322Z,14.00
2018-05-16T10:49:38.216Z,14.20
2018-05-16T10:50:38.621Z,12.20
2018-05-16T10:51:37.780Z,13.90
2018-05-16T10:52:38.654Z,14.00
2018-05-16T10:53:38.290Z,14.10
2018-05-16T10:54:38.361Z,13.00
2018-05-16T10:55:38.810Z,12.80
2018-05-16T10:56:38.390Z,12.20
2018-05-16T10:57:37.707Z,12.40
2018-05-16T10:58:38.621Z,13.00
2018-05-16T10:59:38.323Z,12.00
2018-05-16T11:00:38.109Z,11.40
2018-05-16T11:01:38.093Z,12.80
2018-05-16T11:02:38.359Z,12.00
2018-05-16T11:03:38.323Z,11.70
2018-05-16T11:04:38.393Z,11.00
2018-05-16T11:05:38.289Z,10.40
2018-05-16T11:06:38.767Z,9.60
2018-05-16T11:07:38.153Z,9.50
2018-05-16T11:08:38.615Z,9.00
2018-05-16T11:09:38.289Z,9.10
2018-05-16T11:10:38.129Z,9.60
2018-05-16T11:11:38.295Z,8.70
2018-05-16T11:12:38.356Z,8.30
2018-05-16T11:13:38.620Z,10.20
2018-05-16T11:14:38.631Z,8.90
2018-05-16T11:15:38.604Z,9.00
2018-05-16T11:16:38.551Z,9.20
2018-05-16T11:17:38.138Z,9.30
2018-05-16T11:18:38.291Z,8.80
2018-05-16T11:19:38.832Z,9.90
2018-05-16T11:20:38.780Z,9.60
2018-05-16T11:21:38.289Z,8.80
2018-05-16T11:22:38.297Z,9.20
2018-05-16T11:23:38.367Z,8.60
2018-05-16T11:24:38.269Z,9.00
2018-05-16T11:25:38.808Z,9.10
2018-05-16T11:26:38.456Z,8.40
2018-05-16T11:27:38.037Z,8.00
2018-05-16T11:28:38.293Z,8.20
2018-05-16T11:29:38.300Z,8.70
2018-05-16T11:30:38.406Z,9.20
2018-05-16T11:31:38.652Z,8.30
2018-05-16T11:32:38.202Z,9.50
2018-05-16T11:33:38.643Z,8.20
2018-05-16T11:34:38.303Z,7.30
2018-05-16T11:35:38.299Z,8.00
2018-05-16T11:37:37.899Z,7.00
2018-05-16T11:38:38.342Z,7.40
2018-05-16T11:39:40.224Z,7.10
2018-05-16T11:40:38.322Z,7.00
2018-05-16T11:41:38.328Z,7.70
2018-05-16T11:42:39.008Z,7.50
2018-05-16T11:43:38.841Z,7.20
2018-05-16T11:44:38.108Z,7.90
2018-05-16T11:45:38.957Z,7.20
2018-05-16T11:46:38.380Z,7.90
2018-05-16T11:47:38.304Z,7.70
2018-05-16T11:48:38.927Z,7.70
2018-05-16T11:49:38.846Z,8.40
2018-05-16T11:50:38.847Z,7.50
2018-05-16T11:51:38.469Z,7.70
2018-05-16T11:52:38.352Z,7.20
2018-05-16T11:53:40.335Z,6.60
2018-05-16T11:54:40.137Z,7.20
2018-05-16T11:55:38.699Z,7.20
2018-05-16T11:56:38.222Z,7.80
2018-05-16T11:57:39.184Z,7.00
2018-05-16T11:58:39.203Z,7.60
2018-05-16T11:59:38.409Z,7.20
2018-05-16T12:00:38.390Z,7.30
2018-05-16T12:01:38.932Z,7.30
2018-05-16T12:02:39.253Z,9.20
2018-05-16T12:03:38.425Z,6.90
2018-05-16T12:04:38.833Z,6.60
2018-05-16T12:05:38.043Z,7.20
2018-05-16T12:06:40.444Z,7.40
2018-05-16T12:07:38.963Z,7.80
2018-05-16T12:08:38.884Z,7.30
2018-05-16T12:09:39.086Z,7.20
2018-05-16T12:10:39.178Z,8.00
2018-05-16T12:11:39.181Z,7.30
2018-05-16T12:12:39.171Z,8.60
2018-05-16T12:13:38.817Z,10.10
2018-05-16T12:14:39.309Z,7.50
2018-05-16T12:15:39.160Z,8.50
2018-05-16T12:16:38.929Z,8.30
2018-05-16T12:17:39.197Z,7.90
2018-05-16T12:18:38.673Z,9.20
2018-05-16T12:19:38.327Z,8.10
2018-05-16T12:20:38.931Z,8.50
2018-05-16T12:21:39.458Z,8.10
2018-05-16T12:22:40.873Z,8.60
2018-05-16T12:23:38.161Z,8.80
2018-05-16T12:24:38.862Z,8.60
2018-05-16T12:25:39.161Z,8.70
2018-05-16T12:26:38.130Z,8.30
2018-05-16T12:27:38.823Z,8.60
2018-05-16T12:28:38.908Z,8.50
2018-05-16T12:29:39.226Z,8.70
2018-05-16T12:30:38.060Z,9.00
2018-05-16T12:31:39.175Z,8.60
2018-05-16T12:32:38.655Z,8.70
2018-05-16T12:33:38.826Z,10.40
2018-05-16T12:34:39.285Z,9.40
2018-05-16T12:35:38.872Z,9.20
2018-05-16T12:36:38.636Z,8.80
2018-05-16T12:37:39.416Z,8.70
2018-05-16T12:38:41.633Z,8.50
2018-05-16T12:39:38.873Z,9.20
2018-05-16T12:40:38.912Z,9.20
2018-05-16T12:41:39.167Z,9.00
2018-05-16T12:42:39.233Z,9.00
2018-05-16T12:43:40.689Z,9.20
2018-05-16T12:44:38.694Z,9.50
2018-05-16T12:45:40.620Z,9.00
2018-05-16T12:46:38.941Z,10.40
2018-05-16T12:47:38.932Z,10.80
2018-05-16T12:48:38.712Z,11.20
2018-05-16T12:49:38.799Z,11.40
2018-05-16T12:50:39.179Z,10.80
2018-05-16T12:51:38.877Z,10.60
2018-05-16T12:52:39.176Z,11.70
2018-05-16T12:53:38.880Z,10.90
2018-05-16T12:54:38.699Z,11.00
2018-05-16T12:55:38.767Z,10.70
2018-05-16T12:56:38.764Z,12.00
2018-05-16T12:57:38.774Z,13.10
2018-05-16T12:58:40.679Z,12.30
2018-05-16T12:59:39.181Z,13.20
2018-05-16T13:00:38.918Z,12.20
2018-05-16T13:01:40.181Z,12.70
2018-05-16T13:02:39.107Z,12.10
2018-05-16T13:03:38.616Z,13.70
2018-05-16T13:04:38.365Z,13.30
2018-05-16T13:05:39.505Z,15.00
2018-05-16T13:06:39.039Z,14.10
2018-05-16T13:07:38.926Z,13.20
2018-05-16T13:08:39.378Z,14.40
2018-05-16T13:09:39.386Z,15.40